Time;durP1;ratioP1;P1;durP2;ratioP2;P2;SDS_P1;SDS_P2;PMS_P1;PMS_P2;Temp;Humidity;BMP_temperature;BMP_pressure;BME280_temperature;BME280_humidity;BME280_pressure;Samples;Min_cycle;Max_cycle;Signal;HPM_P1;HPM_P2
2021/07/16 00:01:52;;;;;;;29.50;23.80;;;18.30;99.90;;;;;;4934108;29;20952;-77
2021/07/16 00:04:19;;;;;;;24.87;22.27;;;18.30;99.90;;;;;;4933969;29;20466;-76
2021/07/16 00:06:47;;;;;;;27.57;22.70;;;18.20;99.90;;;;;;4932189;29;21054;-77
2021/07/16 00:09:15;;;;;;;27.97;21.73;;;18.20;99.90;;;;;;4931448;29;20497;-79
2021/07/16 00:11:42;;;;;;;28.17;22.00;;;18.20;99.90;;;;;;4934180;29;20462;-77
2021/07/16 00:14:09;;;;;;;30.87;22.30;;;18.20;99.90;;;;;;4931063;29;20469;-77
2021/07/16 00:16:38;;;;;;;29.47;21.63;;;18.30;99.90;;;;;;4921886;29;20812;-77
2021/07/16 00:19:05;;;;;;;25.87;21.50;;;18.20;99.90;;;;;;4932159;29;20574;-78
2021/07/16 00:21:32;;;;;;;25.40;21.77;;;18.20;99.90;;;;;;4936090;29;20477;-77
2021/07/16 00:24:00;;;;;;;29.23;21.87;;;18.50;99.90;;;;;;4933939;29;20466;-76
2021/07/16 00:26:29;;;;;;;28.77;23.23;;;18.20;99.90;;;;;;4932506;29;20470;-77
2021/07/16 00:28:56;;;;;;;29.20;23.23;;;18.20;99.90;;;;;;4928880;29;20506;-77
2021/07/16 00:31:23;;;;;;;27.90;24.57;;;18.20;99.90;;;;;;4930491;29;20960;-77
2021/07/16 00:33:51;;;;;;;29.03;24.60;;;18.10;99.90;;;;;;4932190;29;20860;-77
2021/07/16 00:36:18;;;;;;;28.80;24.93;;;18.10;99.90;;;;;;4932231;29;20455;-77
2021/07/16 00:38:47;;;;;;;26.17;23.43;;;18.10;99.90;;;;;;4931381;29;20491;-77
2021/07/16 00:41:14;;;;;;;30.67;26.40;;;18.10;99.90;;;;;;4933265;29;20477;-77
2021/07/16 00:43:42;;;;;;;31.43;25.20;;;18.10;99.90;;;;;;4935751;29;20811;-78
2021/07/16 00:46:09;;;;;;;26.80;23.20;;;18.00;99.90;;;;;;4933971;29;20472;-79
2021/07/16 00:48:36;;;;;;;28.13;21.23;;;18.00;99.90;;;;;;4935195;29;20475;-77
2021/07/16 00:51:04;;;;;;;24.13;20.70;;;18.00;99.90;;;;;;4930126;29;20439;-79
2021/07/16 00:53:32;;;;;;;22.13;19.97;;;18.00;99.90;;;;;;4919225;29;20462;-77
2021/07/16 00:55:59;;;;;;;24.70;20.50;;;18.00;99.90;;;;;;4933324;29;20454;-78
2021/07/16 00:58:26;;;;;;;27.63;21.07;;;18.00;99.90;;;;;;4932906;29;20486;-79
2021/07/16 01:00:54;;;;;;;20.97;18.77;;;18.00;99.90;;;;;;4931942;29;20459;-78
2021/07/16 01:03:21;;;;;;;22.93;17.30;;;18.00;99.90;;;;;;4945457;28;20923;-78
2021/07/16 01:05:48;;;;;;;25.17;18.33;;;18.00;99.90;;;;;;4929486;29;21451;-77
2021/07/16 01:08:19;;;;;;;19.10;17.07;;;17.90;99.90;;;;;;4932071;29;20818;-78
2021/07/16 01:10:46;;;;;;;19.80;17.90;;;17.90;99.90;;;;;;4914250;29;20473;-78
2021/07/16 01:13:14;;;;;;;23.03;19.03;;;17.90;99.90;;;;;;4932962;29;21174;-76
2021/07/16 01:15:42;;;;;;;22.23;17.40;;;17.90;99.90;;;;;;4932921;29;20450;-79
2021/07/16 01:18:10;;;;;;;20.30;16.80;;;17.90;99.90;;;;;;4927728;28;20489;-78
2021/07/16 01:20:38;;;;;;;20.13;18.10;;;17.90;99.90;;;;;;4930845;29;20434;-78
2021/07/16 01:23:16;;;;;;;22.67;17.23;;;17.90;99.90;;;;;;4930909;29;20848;-79
2021/07/16 01:25:43;;;;;;;20.30;17.80;;;17.80;99.90;;;;;;4932822;29;20845;-77
2021/07/16 01:28:10;;;;;;;21.10;17.37;;;17.90;99.90;;;;;;4925743;29;20496;-78
2021/07/16 01:30:37;;;;;;;20.60;18.27;;;17.80;99.90;;;;;;4933589;29;20497;-77
2021/07/16 01:33:05;;;;;;;19.43;17.40;;;17.80;99.90;;;;;;4928156;29;20533;-78
2021/07/16 01:35:33;;;;;;;22.30;17.10;;;17.90;99.90;;;;;;4929677;29;20716;-80
2021/07/16 01:38:00;;;;;;;23.13;17.60;;;17.80;99.90;;;;;;4927727;29;20493;-78
2021/07/16 01:40:32;;;;;;;24.53;17.53;;;17.80;99.90;;;;;;4930656;29;21005;-79
2021/07/16 01:42:59;;;;;;;20.60;18.40;;;17.70;99.90;;;;;;4930656;29;20852;-76
2021/07/16 01:45:29;;;;;;;23.73;18.83;;;17.90;99.90;;;;;;4936065;29;21537;-79
2021/07/16 01:47:58;;;;;;;25.33;18.83;;;17.80;99.90;;;;;;4932859;29;20488;-77
2021/07/16 01:50:26;;;;;;;21.13;17.57;;;17.80;99.90;;;;;;4935835;29;20484;-78
2021/07/16 01:52:53;;;;;;;22.63;17.90;;;17.80;99.90;;;;;;4932864;29;20462;-78
2021/07/16 01:55:22;;;;;;;22.87;17.20;;;17.80;99.90;;;;;;4915052;29;20466;-77
2021/07/16 01:57:52;;;;;;;20.20;17.73;;;17.80;99.90;;;;;;4940501;28;20481;-76
2021/07/16 02:00:23;;;;;;;25.00;18.10;;;17.70;99.90;;;;;;4934133;28;20973;-78
2021/07/16 02:02:52;;;;;;;21.87;17.90;;;17.70;99.90;;;;;;4918273;29;20830;-77
2021/07/16 02:05:22;;;;;;;23.13;17.93;;;17.70;99.90;;;;;;4919775;29;20848;-79
2021/07/16 02:07:50;;;;;;;21.77;16.83;;;17.60;99.90;;;;;;4909758;29;20482;-77
2021/07/16 02:10:18;;;;;;;18.77;16.50;;;17.60;99.90;;;;;;4933392;29;20466;-77
2021/07/16 02:12:45;;;;;;;25.17;17.17;;;17.60;99.90;;;;;;4948616;29;20524;-77
2021/07/16 02:15:17;;;;;;;26.77;17.10;;;17.60;99.90;;;;;;4924160;29;20703;-78
2021/07/16 02:17:44;;;;;;;17.10;15.40;;;17.50;99.90;;;;;;4921121;29;20481;-78
2021/07/16 02:20:22;;;;;;;22.30;18.30;;;17.60;99.90;;;;;;4921344;29;20496;-77
2021/07/16 02:22:50;;;;;;;21.43;17.70;;;17.60;99.90;;;;;;4911612;29;20829;-79
2021/07/16 02:25:17;;;;;;;21.60;15.27;;;17.50;99.90;;;;;;4934707;29;20423;-77
2021/07/16 02:27:45;;;;;;;22.73;15.27;;;17.50;99.90;;;;;;4918435;29;20473;-80
2021/07/16 02:30:15;;;;;;;17.47;15.47;;;17.50;99.90;;;;;;4912103;29;20468;-77
2021/07/16 02:32:42;;;;;;;22.73;15.33;;;17.50;99.90;;;;;;4933783;29;20927;-77
2021/07/16 02:35:10;;;;;;;20.60;16.37;;;17.40;99.90;;;;;;4920257;29;20466;-78
2021/07/16 02:37:38;;;;;;;22.13;14.40;;;17.40;99.90;;;;;;4937790;29;20828;-77
2021/07/16 02:40:07;;;;;;;16.93;14.40;;;17.40;99.90;;;;;;4914027;29;20500;-77
2021/07/16 02:42:34;;;;;;;22.87;15.00;;;17.40;99.90;;;;;;4937953;29;20450;-77
2021/07/16 02:45:03;;;;;;;21.63;15.73;;;17.40;99.90;;;;;;4912514;29;20461;-77
2021/07/16 02:47:32;;;;;;;17.43;14.60;;;17.40;99.90;;;;;;4911361;29;20489;-79
2021/07/16 02:49:58;;;;;;;20.97;15.20;;;17.40;99.90;;;;;;4935742;29;20473;-78
2021/07/16 02:52:25;;;;;;;21.50;14.33;;;17.40;99.90;;;;;;4934511;29;20454;-77
2021/07/16 02:54:52;;;;;;;19.00;15.23;;;17.40;99.90;;;;;;4934588;29;20458;-76
2021/07/16 02:57:19;;;;;;;18.50;14.40;;;17.40;99.90;;;;;;4936659;28;20478;-78
2021/07/16 02:59:46;;;;;;;19.60;13.37;;;17.40;99.90;;;;;;4930236;29;20816;-76
2021/07/16 03:02:13;;;;;;;19.77;15.17;;;17.30;99.90;;;;;;4932227;29;20458;-78
2021/07/16 03:04:41;;;;;;;19.77;14.20;;;17.30;99.90;;;;;;4934952;29;20461;-77
2021/07/16 03:07:08;;;;;;;19.10;15.03;;;17.30;99.90;;;;;;4935197;29;20505;-78
2021/07/16 03:09:35;;;;;;;22.27;15.60;;;17.30;99.90;;;;;;4928010;29;20509;-76
2021/07/16 03:12:03;;;;;;;18.27;15.10;;;17.30;99.90;;;;;;4933922;29;20771;-78
2021/07/16 03:14:31;;;;;;;19.27;15.70;;;17.20;99.90;;;;;;4931321;29;20475;-77
2021/07/16 03:16:59;;;;;;;24.63;14.03;;;17.20;99.90;;;;;;4928996;29;20847;-76
2021/07/16 03:19:26;;;;;;;18.70;13.83;;;17.30;99.90;;;;;;4934741;29;20486;-79
2021/07/16 03:21:54;;;;;;;19.70;15.37;;;17.20;99.90;;;;;;4930453;29;20489;-77
2021/07/16 03:24:21;;;;;;;21.93;16.07;;;17.20;99.90;;;;;;4921550;29;21365;-76
2021/07/16 03:26:48;;;;;;;26.47;16.63;;;17.20;99.90;;;;;;4931150;29;21563;-77
2021/07/16 03:29:15;;;;;;;25.37;17.50;;;17.20;99.90;;;;;;4934359;29;20484;-78
2021/07/16 03:31:42;;;;;;;20.30;13.83;;;17.20;99.90;;;;;;4925279;29;20473;-79
2021/07/16 03:34:09;;;;;;;18.57;14.40;;;17.20;99.90;;;;;;4915769;29;20446;-78
2021/07/16 03:36:36;;;;;;;21.33;14.07;;;17.20;99.90;;;;;;4900785;29;20469;-77
2021/07/16 03:39:05;;;;;;;19.13;13.40;;;17.10;99.90;;;;;;4929764;29;20497;-78
2021/07/16 03:41:32;;;;;;;19.10;12.50;;;17.10;99.90;;;;;;4909940;29;21140;-76
2021/07/16 03:43:59;;;;;;;19.33;13.37;;;17.20;99.90;;;;;;4931845;29;20839;-78
2021/07/16 03:46:27;;;;;;;18.93;14.30;;;17.10;99.90;;;;;;4923738;29;20476;-77
2021/07/16 03:48:56;;;;;;;18.00;13.80;;;17.50;99.90;;;;;;4934471;29;20468;-78
2021/07/16 03:51:23;;;;;;;17.43;14.47;;;17.10;99.90;;;;;;4927526;29;20951;-79
2021/07/16 03:53:50;;;;;;;19.87;13.90;;;17.10;99.90;;;;;;4925941;28;20470;-79
2021/07/16 03:56:18;;;;;;;19.10;14.97;;;17.10;99.90;;;;;;4932422;29;20731;-77
2021/07/16 03:58:46;;;;;;;22.13;13.33;;;17.10;99.90;;;;;;4932857;29;20981;-77
2021/07/16 04:01:14;;;;;;;18.90;12.70;;;17.00;99.90;;;;;;4928736;29;20454;-77
2021/07/16 04:03:41;;;;;;;15.30;13.70;;;17.10;99.90;;;;;;4934194;29;20460;-78
2021/07/16 04:06:08;;;;;;;18.03;15.10;;;17.00;99.90;;;;;;4931838;28;20470;-77
2021/07/16 04:08:36;;;;;;;17.73;13.43;;;17.00;99.90;;;;;;4920388;29;23182;-78
2021/07/16 04:11:03;;;;;;;23.03;12.77;;;17.00;99.90;;;;;;4921551;29;20866;-78
2021/07/16 04:13:32;;;;;;;16.67;13.00;;;16.90;99.90;;;;;;4921252;29;20464;-78
2021/07/16 04:15:59;;;;;;;18.90;12.67;;;17.00;99.90;;;;;;4914900;29;20548;-77
2021/07/16 04:18:26;;;;;;;13.63;12.23;;;17.00;99.90;;;;;;4901048;29;20466;-77
2021/07/16 04:20:52;;;;;;;20.37;13.23;;;16.90;99.90;;;;;;4920839;29;20524;-78
2021/07/16 04:23:19;;;;;;;17.07;14.40;;;16.90;99.90;;;;;;4920685;29;20433;-78
2021/07/16 04:25:46;;;;;;;16.83;13.80;;;16.90;99.90;;;;;;4930890;29;20475;-79
2021/07/16 04:28:13;;;;;;;20.40;14.67;;;16.90;99.90;;;;;;4933922;29;20479;-78
2021/07/16 04:30:42;;;;;;;23.93;16.73;;;16.90;99.90;;;;;;4927142;29;20468;-78
2021/07/16 04:33:09;;;;;;;20.70;15.97;;;16.80;99.90;;;;;;4931214;29;20877;-76
2021/07/16 04:35:36;;;;;;;22.47;16.13;;;16.80;99.90;;;;;;4925222;29;20547;-79
2021/07/16 04:38:04;;;;;;;23.07;16.93;;;16.80;99.90;;;;;;4935978;29;20981;-77
2021/07/16 04:40:32;;;;;;;17.53;15.07;;;16.80;99.90;;;;;;4917276;29;20495;-79
2021/07/16 04:42:59;;;;;;;18.60;16.60;;;16.80;99.90;;;;;;4929905;29;20544;-77
2021/07/16 04:45:26;;;;;;;19.57;17.43;;;16.80;99.90;;;;;;4929421;29;20459;-77
2021/07/16 04:47:54;;;;;;;24.40;17.33;;;16.80;99.90;;;;;;4921301;29;20473;-76
2021/07/16 04:50:22;;;;;;;24.13;18.20;;;16.80;99.90;;;;;;4913040;29;20819;-78
2021/07/16 04:52:50;;;;;;;25.70;17.03;;;16.80;99.90;;;;;;4916667;29;20450;-78
2021/07/16 04:55:18;;;;;;;27.53;17.90;;;16.80;99.90;;;;;;4910786;29;20477;-76
2021/07/16 04:57:45;;;;;;;21.30;16.30;;;16.80;99.90;;;;;;4904766;29;20496;-79
2021/07/16 05:00:14;;;;;;;23.60;17.70;;;16.80;99.90;;;;;;4935249;29;20497;-78
2021/07/16 05:02:41;;;;;;;24.37;17.83;;;16.80;99.90;;;;;;4918425;29;20459;-78
2021/07/16 05:05:11;;;;;;;20.90;17.30;;;16.80;99.90;;;;;;4925442;29;20466;-78
2021/07/16 05:07:37;;;;;;;24.00;16.97;;;16.80;99.90;;;;;;4890629;29;20512;-79
2021/07/16 05:10:06;;;;;;;19.03;16.20;;;16.80;99.90;;;;;;4932026;29;20450;-79
2021/07/16 05:12:34;;;;;;;20.50;16.57;;;16.80;99.90;;;;;;4915238;29;20454;-80
2021/07/16 05:15:01;;;;;;;20.70;17.23;;;16.80;99.90;;;;;;4910165;29;20468;-77
2021/07/16 05:17:28;;;;;;;23.57;16.63;;;16.80;99.90;;;;;;4932836;29;20456;-79
2021/07/16 05:19:55;;;;;;;26.47;16.20;;;16.80;99.90;;;;;;4941221;29;21066;-77
2021/07/16 05:22:23;;;;;;;20.40;15.77;;;16.70;99.90;;;;;;4932288;29;20448;-78
2021/07/16 05:24:50;;;;;;;17.10;15.30;;;16.80;99.90;;;;;;4931320;29;20544;-79
2021/07/16 05:27:17;;;;;;;19.40;15.03;;;16.80;99.90;;;;;;4930697;29;20479;-77
2021/07/16 05:29:44;;;;;;;22.00;15.20;;;16.70;99.90;;;;;;4932774;29;20457;-76
2021/07/16 05:32:11;;;;;;;18.07;15.13;;;16.80;99.90;;;;;;4930944;29;20821;-77
2021/07/16 05:34:37;;;;;;;19.53;13.33;;;16.80;99.90;;;;;;4934883;28;20471;-79
2021/07/16 05:37:05;;;;;;;17.63;14.60;;;16.80;99.90;;;;;;4926361;29;20470;-78
2021/07/16 05:39:33;;;;;;;16.37;12.73;;;16.80;99.90;;;;;;4927898;29;20482;-77
2021/07/16 05:42:03;;;;;;;16.70;13.70;;;16.80;99.90;;;;;;4932940;29;20468;-81
2021/07/16 05:44:30;;;;;;;17.80;12.60;;;16.80;99.90;;;;;;4925966;29;20456;-82
2021/07/16 05:46:57;;;;;;;16.93;13.40;;;16.80;99.90;;;;;;4927314;29;20469;-80
2021/07/16 05:49:24;;;;;;;15.23;13.30;;;16.80;99.90;;;;;;4930824;29;20867;-78
2021/07/16 05:51:51;;;;;;;18.53;13.27;;;16.80;99.90;;;;;;4930834;29;20445;-79
2021/07/16 05:54:18;;;;;;;18.07;13.73;;;16.80;99.90;;;;;;4926484;29;20984;-77
2021/07/16 05:56:46;;;;;;;14.80;12.63;;;16.80;99.90;;;;;;4920419;29;20923;-78
2021/07/16 05:59:13;;;;;;;19.20;13.63;;;16.80;99.90;;;;;;4915504;29;20466;-77
2021/07/16 06:01:40;;;;;;;16.73;13.20;;;16.80;99.90;;;;;;4937547;28;20465;-78
2021/07/16 06:04:10;;;;;;;20.77;14.33;;;16.80;99.90;;;;;;4928660;29;20836;-80
2021/07/16 06:06:37;;;;;;;22.10;14.10;;;16.80;99.90;;;;;;4931582;29;20446;-79
2021/07/16 06:09:05;;;;;;;19.20;14.30;;;16.80;99.90;;;;;;4931117;29;20985;-84
2021/07/16 06:11:32;;;;;;;18.03;15.07;;;16.80;99.90;;;;;;4903066;29;20485;-80
2021/07/16 06:14:00;;;;;;;22.30;14.10;;;16.70;99.90;;;;;;4926636;29;20459;-78
2021/07/16 06:16:27;;;;;;;17.57;15.50;;;16.80;99.90;;;;;;4943790;29;20811;-78
2021/07/16 06:18:54;;;;;;;18.03;14.63;;;16.70;99.90;;;;;;4923692;29;20581;-78
2021/07/16 06:21:21;;;;;;;22.33;15.53;;;16.70;99.90;;;;;;4921756;29;20478;-78
2021/07/16 06:23:48;;;;;;;15.87;13.90;;;16.70;99.90;;;;;;4934488;29;20454;-81
2021/07/16 06:26:15;;;;;;;26.07;16.23;;;16.70;99.90;;;;;;4933438;29;20444;-81
2021/07/16 06:28:42;;;;;;;20.23;15.30;;;16.70;99.90;;;;;;4932427;29;20811;-78
2021/07/16 06:31:10;;;;;;;19.30;14.87;;;16.70;99.90;;;;;;4930543;29;20473;-83
2021/07/16 06:33:37;;;;;;;20.43;15.17;;;16.70;99.90;;;;;;4928166;29;20933;-79
2021/07/16 06:36:04;;;;;;;19.13;16.30;;;16.80;99.90;;;;;;4933953;29;20994;-82
2021/07/16 06:38:31;;;;;;;24.60;17.00;;;16.60;99.90;;;;;;4947365;28;20495;-81
2021/07/16 06:41:00;;;;;;;28.10;17.53;;;16.60;99.90;;;;;;4935115;29;20497;-78
2021/07/16 06:43:27;;;;;;;27.57;18.93;;;16.60;99.90;;;;;;4921767;29;20478;-84
2021/07/16 06:45:54;;;;;;;30.87;18.33;;;16.60;99.90;;;;;;4926367;29;20460;-79
2021/07/16 06:48:22;;;;;;;29.60;20.37;;;16.60;99.90;;;;;;4934866;29;20481;-81
2021/07/16 06:50:49;;;;;;;22.60;18.30;;;16.60;99.90;;;;;;4926674;29;20468;-80
2021/07/16 06:53:16;;;;;;;30.80;20.20;;;16.60;99.90;;;;;;4923507;29;20829;-81
2021/07/16 06:55:43;;;;;;;26.03;20.50;;;16.60;99.90;;;;;;4930701;29;20465;-78
2021/07/16 06:58:10;;;;;;;29.70;22.80;;;16.50;99.90;;;;;;4935166;29;20470;-79
2021/07/16 07:00:37;;;;;;;31.50;22.00;;;16.50;99.90;;;;;;4928545;29;20504;-80
2021/07/16 07:03:04;;;;;;;27.73;21.67;;;16.50;99.90;;;;;;4922038;29;20931;-78
2021/07/16 07:05:32;;;;;;;30.53;21.10;;;16.50;99.90;;;;;;4934069;29;20450;-77
2021/07/16 07:07:59;;;;;;;28.00;20.57;;;16.50;99.90;;;;;;4934878;29;20571;-77
2021/07/16 07:10:26;;;;;;;29.30;21.63;;;16.50;99.90;;;;;;4925632;29;20569;-76
2021/07/16 07:12:53;;;;;;;29.03;21.13;;;16.50;99.90;;;;;;4931226;29;20462;-79
2021/07/16 07:15:20;;;;;;;22.93;19.90;;;16.50;99.90;;;;;;4935952;29;20449;-79
2021/07/16 07:17:47;;;;;;;23.73;19.50;;;16.50;99.90;;;;;;4926317;29;21083;-76
2021/07/16 07:20:14;;;;;;;28.83;20.80;;;16.50;99.90;;;;;;4933710;29;20514;-74
2021/07/16 07:22:42;;;;;;;26.87;20.10;;;16.50;99.90;;;;;;4917860;29;20453;-77
2021/07/16 07:25:11;;;;;;;30.33;18.47;;;16.50;99.90;;;;;;4927685;29;20466;-78
2021/07/16 07:27:38;;;;;;;27.23;22.03;;;16.50;99.90;;;;;;4919025;29;20477;-78
2021/07/16 07:30:07;;;;;;;24.07;19.40;;;16.50;99.90;;;;;;4909813;29;20454;-78
2021/07/16 07:32:34;;;;;;;27.67;20.27;;;16.50;99.90;;;;;;4921911;29;20464;-77
2021/07/16 07:35:01;;;;;;;29.07;20.33;;;16.50;99.90;;;;;;4898184;29;20465;-74
2021/07/16 07:37:28;;;;;;;25.20;19.27;;;16.50;99.90;;;;;;4931741;29;20571;-75
2021/07/16 07:39:56;;;;;;;28.03;22.37;;;16.50;99.90;;;;;;4933685;29;20470;-77
2021/07/16 07:42:25;;;;;;;27.73;21.50;;;16.50;99.90;;;;;;4928166;29;20476;-78
2021/07/16 07:44:53;;;;;;;32.40;20.53;;;16.50;99.90;;;;;;4910831;29;20457;-75
2021/07/16 07:47:20;;;;;;;24.63;20.93;;;16.50;99.90;;;;;;4932401;29;20982;-77
2021/07/16 07:49:48;;;;;;;25.40;19.60;;;16.60;99.90;;;;;;4931216;29;20468;-74
2021/07/16 07:52:16;;;;;;;23.07;19.20;;;16.60;99.90;;;;;;4931325;29;20943;-77
2021/07/16 07:54:43;;;;;;;27.27;21.07;;;16.60;99.90;;;;;;4921421;29;20556;-75
2021/07/16 07:57:11;;;;;;;24.20;21.50;;;16.60;99.90;;;;;;4921200;29;20494;-76
2021/07/16 07:59:40;;;;;;;30.93;22.57;;;16.60;99.90;;;;;;4927250;29;21069;-80
2021/07/16 08:02:08;;;;;;;29.60;21.90;;;16.70;99.90;;;;;;4933152;29;20875;-80
2021/07/16 08:04:36;;;;;;;29.03;22.67;;;16.70;99.90;;;;;;4930717;29;20493;-76
2021/07/16 08:07:03;;;;;;;26.83;21.77;;;16.70;99.90;;;;;;4925361;29;20462;-77
2021/07/16 08:09:29;;;;;;;24.97;20.40;;;16.70;99.90;;;;;;4934763;29;20553;-78
2021/07/16 08:11:56;;;;;;;26.73;19.70;;;16.70;99.90;;;;;;4951204;28;20460;-78
2021/07/16 08:14:25;;;;;;;28.17;18.73;;;16.80;99.90;;;;;;4928936;29;20462;-76
2021/07/16 08:16:52;;;;;;;23.60;17.77;;;16.70;99.90;;;;;;4936047;29;20812;-78
2021/07/16 08:19:19;;;;;;;22.93;18.67;;;16.80;99.90;;;;;;4917276;29;20486;-77
2021/07/16 08:21:47;;;;;;;23.13;19.10;;;16.70;99.90;;;;;;4931736;29;20477;-78
2021/07/16 08:24:14;;;;;;;23.63;19.60;;;16.70;99.90;;;;;;4932168;29;20453;-77
2021/07/16 08:26:42;;;;;;;24.20;18.70;;;16.70;99.90;;;;;;4904353;29;20473;-74
2021/07/16 08:29:10;;;;;;;24.37;18.53;;;16.60;99.90;;;;;;4898136;29;20466;-80
2021/07/16 08:31:39;;;;;;;27.83;20.10;;;16.60;99.90;;;;;;4920053;29;20943;-77
2021/07/16 08:34:08;;;;;;;24.40;18.23;;;16.60;99.90;;;;;;4924262;29;21239;-75
2021/07/16 08:36:35;;;;;;;25.23;19.57;;;16.60;99.90;;;;;;4905882;29;20482;-80
2021/07/16 08:39:03;;;;;;;26.47;21.43;;;16.60;99.90;;;;;;4935550;29;20840;-79
2021/07/16 08:41:30;;;;;;;23.50;20.10;;;16.60;99.90;;;;;;4917252;29;20481;-79
2021/07/16 08:43:57;;;;;;;23.83;20.80;;;16.50;99.90;;;;;;4912431;29;21432;-75
2021/07/16 08:46:24;;;;;;;28.47;21.33;;;16.50;99.90;;;;;;4920425;29;20476;-76
2021/07/16 08:48:52;;;;;;;28.70;21.40;;;16.50;99.90;;;;;;4931991;29;20576;-80
2021/07/16 08:51:21;;;;;;;27.03;21.53;;;16.50;99.90;;;;;;4932332;29;20912;-77
2021/07/16 08:53:52;;;;;;;25.80;20.57;;;16.50;99.90;;;;;;4918033;29;20489;-78
2021/07/16 08:56:19;;;;;;;27.53;20.30;;;16.50;99.90;;;;;;4930066;29;20445;-79
2021/07/16 08:58:46;;;;;;;26.70;21.83;;;16.50;99.90;;;;;;4929775;29;20576;-75
2021/07/16 09:01:14;;;;;;;27.13;21.10;;;16.50;99.90;;;;;;4923415;29;21015;-77
2021/07/16 09:03:56;;;;;;;24.87;18.77;;;16.50;99.90;;;;;;4923112;29;20471;-76
2021/07/16 09:06:46;;;;;;;22.70;20.30;;;16.50;99.90;;;;;;4943155;29;20451;-79
2021/07/16 09:09:14;;;;;;;25.07;20.67;;;16.40;99.90;;;;;;4914829;29;20491;-73
2021/07/16 09:11:42;;;;;;;22.83;20.40;;;16.40;99.90;;;;;;4920883;29;20926;-78
2021/07/16 09:14:17;;;;;;;24.00;20.40;;;16.40;99.90;;;;;;4934051;29;20419;-82
2021/07/16 09:16:54;;;;;;;22.77;18.93;;;16.40;99.90;;;;;;4912514;29;20447;-77
2021/07/16 09:19:29;;;;;;;21.43;18.73;;;16.40;99.90;;;;;;4927686;29;21131;-81
2021/07/16 09:22:02;;;;;;;25.30;17.73;;;16.50;99.90;;;;;;4914645;29;20483;-76
2021/07/16 09:24:29;;;;;;;20.23;18.03;;;16.50;99.90;;;;;;4921038;29;20465;-75
2021/07/16 09:26:56;;;;;;;19.87;17.80;;;16.50;99.90;;;;;;4924101;29;20433;-79
2021/07/16 09:29:28;;;;;;;24.13;18.00;;;16.50;99.90;;;;;;4931313;29;20521;-77
2021/07/16 09:32:04;;;;;;;18.77;16.87;;;16.60;99.90;;;;;;4912530;29;20473;-77
2021/07/16 09:34:33;;;;;;;20.57;17.47;;;16.60;99.90;;;;;;4932000;29;20453;-80
2021/07/16 09:37:08;;;;;;;18.57;16.67;;;16.60;99.90;;;;;;4919098;29;20451;-77
2021/07/16 09:39:36;;;;;;;19.63;15.77;;;16.70;99.90;;;;;;4917381;29;20856;-76
2021/07/16 09:42:04;;;;;;;18.27;16.60;;;16.70;99.90;;;;;;4909443;29;20493;-79
2021/07/16 09:44:32;;;;;;;20.43;17.53;;;16.80;99.90;;;;;;4926459;29;20462;-79
2021/07/16 09:47:08;;;;;;;19.50;14.77;;;16.80;99.90;;;;;;4907915;29;20991;-79
2021/07/16 09:49:36;;;;;;;16.13;14.43;;;16.80;99.90;;;;;;4896549;29;20462;-77
2021/07/16 09:52:12;;;;;;;19.20;13.17;;;16.80;99.90;;;;;;4898297;29;20462;-79
2021/07/16 09:55:00;;;;;;;16.07;14.30;;;16.80;99.90;;;;;;4918517;29;20587;-77
2021/07/16 09:57:42;;;;;;;16.73;13.60;;;16.80;99.90;;;;;;4916472;29;20453;-79
2021/07/16 10:00:14;;;;;;;20.27;14.60;;;16.80;99.90;;;;;;4900129;29;20538;-77
2021/07/16 10:02:42;;;;;;;19.00;14.23;;;16.80;99.90;;;;;;4920674;29;20586;-79
2021/07/16 10:05:11;;;;;;;18.00;14.10;;;16.80;99.90;;;;;;4929526;29;20463;-79
2021/07/16 10:07:38;;;;;;;16.67;13.40;;;16.80;99.90;;;;;;4900010;29;20467;-76
2021/07/16 10:10:07;;;;;;;21.20;13.57;;;16.80;99.90;;;;;;4929822;29;20465;-76
2021/07/16 10:12:35;;;;;;;18.20;13.40;;;16.90;99.90;;;;;;4918010;29;20900;-77
2021/07/16 10:15:02;;;;;;;16.90;14.17;;;17.00;99.90;;;;;;4923737;29;20459;-77
2021/07/16 10:17:29;;;;;;;16.00;13.50;;;17.00;99.90;;;;;;4926058;29;20484;-79
2021/07/16 10:19:56;;;;;;;17.80;15.37;;;17.00;99.90;;;;;;4928978;29;20454;-77
2021/07/16 10:22:25;;;;;;;17.33;15.30;;;17.00;99.90;;;;;;4939420;29;20494;-82
2021/07/16 10:24:52;;;;;;;26.47;17.60;;;17.00;99.90;;;;;;4937106;29;20466;-78
2021/07/16 10:27:19;;;;;;;24.13;19.13;;;17.00;99.90;;;;;;4923235;29;20468;-82
2021/07/16 10:29:46;;;;;;;19.00;16.67;;;17.00;99.90;;;;;;4938228;29;20446;-80
2021/07/16 10:32:34;;;;;;;19.80;15.40;;;17.00;99.90;;;;;;4926063;29;20999;-77
2021/07/16 10:35:15;;;;;;;18.67;15.83;;;17.10;99.90;;;;;;4912712;29;20493;-76
2021/07/16 10:37:42;;;;;;;18.80;15.90;;;17.10;99.90;;;;;;4908923;29;20489;-79
2021/07/16 10:40:10;;;;;;;21.00;14.50;;;17.10;99.90;;;;;;4925577;29;20494;-76
2021/07/16 10:42:45;;;;;;;17.23;15.13;;;17.10;99.90;;;;;;4935922;29;20494;-77
2021/07/16 10:45:13;;;;;;;18.13;15.83;;;17.20;99.90;;;;;;4911780;29;20465;-79
2021/07/16 10:47:42;;;;;;;15.13;12.40;;;17.20;99.90;;;;;;4906302;29;20505;-80
2021/07/16 10:50:12;;;;;;;14.70;12.60;;;17.30;99.90;;;;;;4908087;29;20722;-77
2021/07/16 10:52:45;;;;;;;13.67;11.03;;;17.30;99.90;;;;;;4932647;29;20461;-81
2021/07/16 10:55:14;;;;;;;11.10;9.37;;;17.40;99.90;;;;;;4923291;29;20463;-83
2021/07/16 10:57:42;;;;;;;8.90;8.00;;;17.50;99.90;;;;;;4899290;29;20835;-76
2021/07/16 11:00:12;;;;;;;14.80;10.90;;;17.50;99.90;;;;;;4932121;29;20457;-81
2021/07/16 11:03:06;;;;;;;14.57;11.10;;;17.50;99.90;;;;;;4910626;29;21067;-76
2021/07/16 11:05:56;;;;;;;12.80;10.20;;;17.60;99.90;;;;;;4923329;29;20467;-76
2021/07/16 11:08:52;;;;;;;12.23;9.37;;;17.70;99.90;;;;;;4921029;29;20597;-76
2021/07/16 11:11:20;;;;;;;11.40;8.20;;;17.70;99.90;;;;;;4917058;29;20453;-75
2021/07/16 11:13:48;;;;;;;9.07;7.60;;;17.70;99.90;;;;;;4917146;29;20449;-78
2021/07/16 11:16:45;;;;;;;14.67;9.20;;;17.70;99.90;;;;;;4904046;29;20458;-75
2021/07/16 11:19:26;;;;;;;12.10;10.30;;;17.80;99.90;;;;;;4911129;29;20490;-78
2021/07/16 11:22:05;;;;;;;17.63;11.10;;;17.70;99.90;;;;;;4915129;29;20991;-76
2021/07/16 11:24:34;;;;;;;12.73;10.07;;;17.70;99.90;;;;;;4915715;29;20446;-78
2021/07/16 11:27:04;;;;;;;12.40;10.00;;;17.80;99.90;;;;;;4924547;29;20482;-78
2021/07/16 11:29:35;;;;;;;12.70;8.40;;;17.80;99.90;;;;;;4911729;29;20988;-79
2021/07/16 11:32:05;;;;;;;11.57;7.30;;;17.90;99.90;;;;;;4916360;29;20549;-81
2021/07/16 11:34:34;;;;;;;14.07;7.50;;;17.90;99.90;;;;;;4928528;29;21020;-77
2021/07/16 11:37:03;;;;;;;9.07;6.10;;;17.90;99.90;;;;;;4927522;29;20469;-80
2021/07/16 11:39:31;;;;;;;6.70;5.33;;;17.90;99.90;;;;;;4912555;29;20980;-80
2021/07/16 11:41:58;;;;;;;6.20;5.20;;;18.00;99.90;;;;;;4907604;29;20494;-78
2021/07/16 11:44:29;;;;;;;8.13;5.20;;;18.00;99.90;;;;;;4909622;29;20474;-77
2021/07/16 11:46:57;;;;;;;9.90;5.43;;;18.00;99.90;;;;;;4914004;29;20440;-79
2021/07/16 11:49:24;;;;;;;10.70;5.40;;;18.10;99.90;;;;;;4899435;29;20878;-79
2021/07/16 11:51:58;;;;;;;9.50;6.00;;;18.10;99.90;;;;;;4910481;29;20459;-78
2021/07/16 11:54:27;;;;;;;7.57;5.90;;;18.10;99.90;;;;;;4900738;29;20857;-79
2021/07/16 11:56:56;;;;;;;7.50;5.90;;;18.10;99.90;;;;;;4907406;29;20566;-80
2021/07/16 11:59:24;;;;;;;9.23;4.70;;;18.10;99.90;;;;;;4913288;29;20456;-77
2021/07/16 12:02:07;;;;;;;7.33;4.53;;;18.20;99.90;;;;;;4906463;29;20835;-79
2021/07/16 12:04:35;;;;;;;8.33;4.97;;;18.10;99.90;;;;;;4910947;29;21010;-76
2021/07/16 12:07:02;;;;;;;6.10;4.57;;;18.10;99.90;;;;;;4912177;29;20439;-78
2021/07/16 12:09:33;;;;;;;7.40;5.40;;;18.00;99.90;;;;;;4907180;29;20889;-82
2021/07/16 12:12:01;;;;;;;8.63;5.20;;;18.10;99.90;;;;;;4899482;29;20440;-79
2021/07/16 12:14:28;;;;;;;6.27;4.97;;;18.10;99.90;;;;;;4904329;29;20952;-77
2021/07/16 12:16:55;;;;;;;8.47;4.90;;;18.10;99.90;;;;;;4906155;29;21920;-80
2021/07/16 12:19:23;;;;;;;6.27;5.10;;;18.10;99.90;;;;;;4910299;29;20459;-81
2021/07/16 12:21:51;;;;;;;7.80;4.97;;;18.20;99.90;;;;;;4912398;29;20934;-81
2021/07/16 12:24:19;;;;;;;7.07;5.37;;;18.10;99.90;;;;;;4911458;29;20803;-82
2021/07/16 12:26:47;;;;;;;8.20;5.70;;;18.10;99.90;;;;;;4896693;29;20456;-78
2021/07/16 12:29:14;;;;;;;14.27;5.53;;;18.20;99.90;;;;;;4900195;29;20829;-83
2021/07/16 12:31:50;;;;;;;8.37;4.70;;;18.20;99.90;;;;;;4910868;29;20467;-79
2021/07/16 12:34:21;;;;;;;10.43;5.60;;;18.20;99.90;;;;;;4914696;29;20471;-76
2021/07/16 12:36:49;;;;;;;10.70;4.80;;;18.20;99.90;;;;;;4899843;29;20460;-79